^^
Monroeville - KPAMUNIC2 Historical Data
 
Daily Summary for July 25, 2021 Units:  English    Metric   Both
Daily Weekly Monthly Yearly
  Current: High: Low: Average:
Temperature: 85.8 °F 87.3 °F 69.4 °F 75.8 °F
Dew Point: 70.9 °F 72.6 °F 65.7 °F 68.3 °F
Humidity: 61.3% 90% 60.2% 78%
Wind Speed: 1mph 2.6mph 0mph 0.6mph
Wind Gust: 4.3mph 7.4mph - -
WindWest - - SSW
Pressure: 29.91 in 29.95 in 29.89 in -
Precipitation: 0.00 in      
 
 
Tabular Data for July 25, 2021
Time Temperature Dew Point Pressure Wind Wind Speed Wind Gust Humidity Rainfall Rate (Hourly) solar
00:04 69.7 °F 66.3 °F 29.95 in Calm     89% 0.00 in 0 W/m2
00:09 69.6 °F 66.2 °F 29.95 in Calm     89% 0.00 in 0 W/m2
00:14 69.4 °F 66.1 °F 29.95 in Calm     89.2% 0.00 in 0 W/m2
00:19 69.6 °F 66.2 °F 29.95 in Calm     89.1% 0.00 in 0 W/m2
00:24 69.6 °F 66.2 °F 29.95 in Calm     89% 0.00 in 0 W/m2
00:29 69.5 °F 66.2 °F 29.95 in Calm     89.2% 0.00 in 0 W/m2
00:34 69.6 °F 66.2 °F 29.95 in Calm   1.3 mph 89.1% 0.00 in 0 W/m2
00:39 69.6 °F 66.6 °F 29.95 in Calm     90% 0.00 in 0 W/m2
00:44 69.6 °F 66.6 °F 29.95 in Calm   1.3 mph 90% 0.00 in 0 W/m2
00:49 69.5 °F 66.5 °F 29.95 in Calm     90% 0.00 in 0 W/m2
00:54 69.6 °F 66.6 °F 29.94 in ESE 0.2 mph 2 mph 90% 0.00 in 0 W/m2
00:59 69.7 °F 66.4 °F 29.95 in Calm   2 mph 89.2% 0.00 in 0 W/m2
01:04 69.9 °F 66.3 °F 29.95 in ESE 0.1 mph 1.1 mph 88.3% 0.00 in 0 W/m2
01:09 70.1 °F 66.1 °F 29.95 in Calm     87.4% 0.00 in 0 W/m2
01:14 70.3 °F 66.3 °F 29.94 in NNE 0.2 mph 2.7 mph 87.3% 0.00 in 0 W/m2
01:19 70.4 °F 66.3 °F 29.94 in Calm   2.7 mph 86.8% 0.00 in 0 W/m2
01:24 70.7 °F 66.2 °F 29.94 in NNE 0.4 mph 2 mph 85.5% 0.00 in 0 W/m2
01:29 71.1 °F 66.3 °F 29.94 in WSW 0.4 mph 2.9 mph 84.6% 0.00 in 0 W/m2
01:34 71.2 °F 66.4 °F 29.94 in East 0.2 mph 1.6 mph 84.5% 0.00 in 0 W/m2
01:39 71.1 °F 66.3 °F 29.94 in Calm   1.3 mph 84.7% 0.00 in 0 W/m2
01:44 71.3 °F 66.1 °F 29.93 in ESE 0.7 mph 2.2 mph 83.5% 0.00 in 0 W/m2
01:49 71.2 °F 66 °F 29.93 in Calm   1.6 mph 83.5% 0.00 in 0 W/m2
01:54 71.2 °F 66.1 °F 29.92 in SSE 0.6 mph 2.5 mph 83.6% 0.00 in 0 W/m2
01:59 71.6 °F 66.2 °F 29.92 in SSE 0.3 mph 2.5 mph 83% 0.00 in 0 W/m2
02:04 71.7 °F 66.1 °F 29.92 in SSE 0.7 mph 2.7 mph 82.6% 0.00 in 0 W/m2
02:09 72 °F 66.2 °F 29.92 in SSE 0.5 mph 2.7 mph 81.9% 0.00 in 0 W/m2
02:14 72.2 °F 66.1 °F 29.91 in SSE 1.1 mph 3.1 mph 81.2% 0.00 in 0 W/m2
02:19 72.4 °F 66 °F 29.90 in SSE 0.9 mph 3.8 mph 80.2% 0.00 in 0 W/m2
02:24 72.7 °F 66.1 °F 29.90 in SSW 1.3 mph 4 mph 79.8% 0.00 in 0 W/m2
02:29 72.8 °F 66.1 °F 29.89 in SSW 1 mph 3.6 mph 79.5% 0.00 in 0 W/m2
02:34 72.7 °F 66.1 °F 29.90 in WNW 1 mph 4.5 mph 79.6% 0.00 in 0 W/m2
02:39 72.8 °F 66.1 °F 29.90 in WNW 0.6 mph 4.5 mph 79.5% 0.00 in 0 W/m2
02:44 72.7 °F 65.8 °F 29.91 in WNW 0.5 mph 3.6 mph 79% 0.00 in 0 W/m2
02:49 72.7 °F 65.9 °F 29.92 in WNW 0.6 mph 4.3 mph 79.3% 0.00 in 0 W/m2
02:54 72.4 °F 66.2 °F 29.92 in South 0.1 mph 2 mph 80.6% 0.00 in 0 W/m2
02:59 71.7 °F 66.3 °F 29.91 in Calm     83.1% 0.00 in 0 W/m2
03:04 71 °F 66.1 °F 29.91 in South 0.6 mph 2.2 mph 84.6% 0.00 in 0 W/m2
03:09 71.3 °F 65.8 °F 29.89 in SSE 1.3 mph 3.1 mph 82.9% 0.00 in 0 W/m2
03:14 71.8 °F 66 °F 29.89 in ENE 0.6 mph 3.1 mph 82% 0.00 in 0 W/m2
03:19 71.9 °F 65.9 °F 29.89 in South 0.4 mph 3.1 mph 81.4% 0.00 in 0 W/m2
03:24 71.9 °F 65.9 °F 29.89 in SE 0.9 mph 3.1 mph 81.4% 0.00 in 0 W/m2
03:29 72.1 °F 65.9 °F 29.89 in ESE 0.2 mph 3.1 mph 81.1% 0.00 in 0 W/m2
03:34 71.9 °F 65.9 °F 29.89 in SE 0.6 mph 4.5 mph 81.5% 0.00 in 0 W/m2
03:39 72.1 °F 65.8 °F 29.89 in SE 1.4 mph 4.5 mph 80.3% 0.00 in 0 W/m2
03:44 72.8 °F 65.8 °F 29.90 in WNW 1.8 mph 5.1 mph 78.7% 0.00 in 0 W/m2
03:49 72.9 °F 66 °F 29.90 in SSE 0.1 mph 5.1 mph 79% 0.00 in 0 W/m2
03:54 72.2 °F 66.1 °F 29.90 in Calm     81.2% 0.00 in 0 W/m2
03:59 71.8 °F 66 °F 29.91 in NW 0.1 mph 1.6 mph 82.1% 0.00 in 0 W/m2
04:04 71.6 °F 66.1 °F 29.91 in SE 0.2 mph 1.8 mph 82.8% 0.00 in 0 W/m2
04:09 71 °F 66.1 °F 29.91 in Calm   1.8 mph 84.5% 0.00 in 0 W/m2
04:14 70.7 °F 66.1 °F 29.91 in Calm   1.8 mph 85.2% 0.00 in 0 W/m2
04:19 70.6 °F 66.2 °F 29.90 in ESE 0.1 mph 1.8 mph 85.8% 0.00 in 0 W/m2
04:24 70.6 °F 65.9 °F 29.91 in Calm   1.6 mph 85.1% 0.00 in 0 W/m2
04:29 70.8 °F 65.7 °F 29.91 in Calm   1.3 mph 84% 0.00 in 0 W/m2
04:34 71.1 °F 65.9 °F 29.92 in Calm   1.6 mph 83.6% 0.00 in 0 W/m2
04:39 71 °F 66 °F 29.91 in Calm     84.2% 0.00 in 0 W/m2
04:44 70.8 °F 66.2 °F 29.91 in Calm   1.6 mph 85.2% 0.00 in 0 W/m2
04:49 70.9 °F 66 °F 29.91 in SSE 0.5 mph 2.9 mph 84.4% 0.00 in 0 W/m2
04:54 71.2 °F 66.2 °F 29.90 in NE 0.2 mph 2.9 mph 83.9% 0.00 in 0 W/m2
04:59 71.5 °F 66 °F 29.90 in SE 0.5 mph 2 mph 82.8% 0.00 in 0 W/m2
05:04 71.6 °F 66.1 °F 29.90 in Calm   1.6 mph 82.8% 0.00 in 0 W/m2
05:09 71.6 °F 65.9 °F 29.91 in Calm   1.6 mph 82.2% 0.00 in 0 W/m2
05:14 71.7 °F 65.8 °F 29.90 in Calm   2.2 mph 81.8% 0.00 in 0 W/m2
05:19 71.8 °F 65.9 °F 29.91 in Calm   2.2 mph 81.7% 0.00 in 0 W/m2
05:24 71.9 °F 65.9 °F 29.90 in South 0.2 mph 2.5 mph 81.5% 0.00 in 0 W/m2
05:29 72 °F 65.8 °F 29.90 in North 0.1 mph 1.8 mph 81.1% 0.00 in 0 W/m2
05:34 72 °F 65.8 °F 29.90 in NE 0.3 mph 2.7 mph 81.1% 0.00 in 0 W/m2
05:39 72 °F 65.9 °F 29.91 in SSW 0.2 mph 3.4 mph 81.3% 0.00 in 0 W/m2
05:44 71.9 °F 65.8 °F 29.90 in SSE 0.2 mph 3.4 mph 81.2% 0.00 in 0 W/m2
05:49 72 °F 65.8 °F 29.90 in South 0.1 mph 1.6 mph 81.1% 0.00 in 0 W/m2
05:54 71.8 °F 65.9 °F 29.90 in SE 0.5 mph 2.2 mph 81.7% 0.00 in 0 W/m2
05:59 71.6 °F 65.9 °F 29.90 in South 0.4 mph 2.2 mph 82.3% 0.00 in 0 W/m2
06:04 71.3 °F 65.8 °F 29.91 in Calm   1.3 mph 82.6% 0.00 in 0 W/m2
06:09 71.1 °F 65.8 °F 29.91 in SE 0.2 mph 2.2 mph 83.2% 0.00 in 0 W/m2
06:14 71.1 °F 65.7 °F 29.91 in NW 0.5 mph 2.9 mph 82.8% 0.00 in 0 W/m2
06:19 71.1 °F 65.9 °F 29.91 in SSE 0.1 mph 2.9 mph 83.5% 0.00 in 0 W/m2
06:24 71.1 °F 65.9 °F 29.92 in SSE 0.3 mph 2.2 mph 83.8% 0.00 in 0 W/m2
06:29 71.1 °F 66 °F 29.92 in ENE 0.2 mph 2.2 mph 84% 0.00 in 2 W/m2
06:34 71.1 °F 65.8 °F 29.92 in SE 0.3 mph 1.8 mph 83.2% 0.00 in 5 W/m2
06:39 71.2 °F 65.8 °F 29.92 in ESE 0.1 mph 1.6 mph 83% 0.00 in 9 W/m2
06:44 71.1 °F 66.2 °F 29.92 in SE 0.3 mph 1.6 mph 84.3% 0.00 in 9 W/m2
06:49 71.1 °F 66.1 °F 29.92 in Calm   1.3 mph 84.2% 0.00 in 7 W/m2
06:54 71.1 °F 66.1 °F 29.92 in East 0.3 mph 1.8 mph 84.3% 0.00 in 10 W/m2
06:59 71.2 °F 66.1 °F 29.92 in ENE 0.2 mph 2.9 mph 83.9% 0.00 in 24 W/m2
07:04 71.6 °F 66 °F 29.92 in NW 0.3 mph 2.9 mph 82.6% 0.00 in 29 W/m2
07:09 71.8 °F 66.2 °F 29.93 in SW 0.5 mph 3.6 mph 82.5% 0.00 in 24 W/m2
07:14 71.9 °F 66.2 °F 29.92 in NNE 0.8 mph 3.6 mph 82.2% 0.00 in 24 W/m2
07:19 72 °F 66 °F 29.93 in SE 0.8 mph 3.6 mph 81.6% 0.00 in 24 W/m2
07:24 72 °F 66.1 °F 29.93 in SSE 0.6 mph 3.1 mph 81.7% 0.00 in 29 W/m2
07:29 72.1 °F 66.1 °F 29.93 in SE 0.5 mph 3.1 mph 81.1% 0.00 in 49 W/m2
07:34 72.4 °F 66.3 °F 29.93 in ESE 0.6 mph 2 mph 80.9% 0.00 in 57 W/m2
07:39 72.5 °F 66.4 °F 29.93 in SE 0.5 mph 1.8 mph 81% 0.00 in 65 W/m2
07:44 72.6 °F 66.4 °F 29.93 in NNE 0.7 mph 3.4 mph 80.7% 0.00 in 64 W/m2
07:49 72.8 °F 66.5 °F 29.93 in SSW 0.9 mph 3.4 mph 80.4% 0.00 in 79 W/m2
07:54 72.9 °F 66.5 °F 29.94 in South 0.8 mph 2.5 mph 80.2% 0.00 in 72 W/m2
07:59 72.9 °F 66.4 °F 29.94 in SSE 0.6 mph 3.1 mph 80% 0.00 in 48 W/m2
08:04 72.9 °F 66.6 °F 29.94 in SE 1 mph 3.8 mph 80.6% 0.00 in 83 W/m2
08:09 73 °F 66.5 °F 29.93 in ENE 0.6 mph 3.4 mph 80% 0.00 in 122 W/m2
08:14 73.3 °F 66.6 °F 29.93 in NNW 0.3 mph 2.2 mph 79.3% 0.00 in 106 W/m2
08:19 73.6 °F 66.9 °F 29.93 in ESE 0.5 mph 2.2 mph 79.3% 0.00 in 127 W/m2
08:24 73.9 °F 67 °F 29.93 in SE 0.6 mph 4.3 mph 78.9% 0.00 in 127 W/m2
08:29 73.9 °F 67.2 °F 29.93 in West 0.4 mph 4.7 mph 79.4% 0.00 in 103 W/m2
08:34 73.8 °F 67.4 °F 29.94 in WSW 0.6 mph 2.7 mph 80.3% 0.00 in 75 W/m2
08:39 73.6 °F 67.3 °F 29.93 in SE 0.5 mph 3.4 mph 80.8% 0.00 in 57 W/m2
08:44 73.3 °F 67.3 °F 29.94 in SSE 0.5 mph 2.7 mph 81.1% 0.00 in 59 W/m2
08:49 73.4 °F 67.2 °F 29.94 in West 0.4 mph 3.4 mph 80.8% 0.00 in 45 W/m2
08:54 73.2 °F 67.2 °F 29.94 in SE 0.5 mph 3.4 mph 81.3% 0.00 in 48 W/m2
08:59 73.1 °F 67.5 °F 29.94 in SSW 0.3 mph 2.2 mph 82.2% 0.00 in 39 W/m2
09:04 73.1 °F 67.4 °F 29.94 in SSW 0.5 mph 3.4 mph 82.1% 0.00 in 57 W/m2
09:09 73.3 °F 67.4 °F 29.94 in SW 0.1 mph 3.4 mph 81.6% 0.00 in 127 W/m2
09:14 73.8 °F 67.8 °F 29.94 in NW 0.5 mph 3.4 mph 81.4% 0.00 in 125 W/m2
09:19 74.1 °F 67.8 °F 29.93 in North 0.1 mph 1.6 mph 80.7% 0.00 in 101 W/m2
09:24 74.3 °F 68.1 °F 29.94 in SE 0.3 mph 2.9 mph 81.2% 0.00 in 163 W/m2
09:29 74.8 °F 68.1 °F 29.94 in West 0.6 mph 3.1 mph 79.9% 0.00 in 160 W/m2
09:34 75.1 °F 68.3 °F 29.94 in West 0.3 mph 3.4 mph 79.5% 0.00 in 121 W/m2
09:39 75 °F 68.1 °F 29.94 in NW 0.6 mph 4 mph 79.4% 0.00 in 86 W/m2
09:44 74.8 °F 67.9 °F 29.94 in West 0.5 mph 3.1 mph 79.3% 0.00 in 100 W/m2
09:49 74.8 °F 68.5 °F 29.94 in Calm   2.5 mph 80.8% 0.00 in 114 W/m2
09:54 74.9 °F 68.3 °F 29.94 in WSW 0.2 mph 3.1 mph 80.2% 0.00 in 99 W/m2
09:59 75 °F 68.7 °F 29.93 in South 0.1 mph 1.8 mph 80.9% 0.00 in 91 W/m2
10:04 74.8 °F 68.5 °F 29.94 in SSE 0.6 mph 2 mph 81% 0.00 in 149 W/m2
10:09 74.9 °F 68.8 °F 29.94 in SSE 0.4 mph 2.9 mph 81.5% 0.00 in 138 W/m2
10:14 75.3 °F 68.9 °F 29.94 in NE 0.5 mph 2.5 mph 80.7% 0.00 in 219 W/m2
10:19 75.8 °F 68.7 °F 29.94 in West 0.4 mph 2.2 mph 78.7% 0.00 in 155 W/m2
10:24 75.9 °F 69.1 °F 29.94 in SE 0.6 mph 4 mph 79.5% 0.00 in 192 W/m2
10:29 76.1 °F 69.2 °F 29.94 in East 0.4 mph 4 mph 79.2% 0.00 in 191 W/m2
10:34 76.6 °F 69.2 °F 29.94 in West 0.7 mph 2.7 mph 78.1% 0.00 in 239 W/m2
10:39 77.1 °F 69.5 °F 29.94 in SW 1.9 mph 4 mph 77.6% 0.00 in 252 W/m2
10:44 77.1 °F 69.3 °F 29.94 in WSW 1.2 mph 4 mph 76.7% 0.00 in 241 W/m2
10:49 77.2 °F 69.6 °F 29.94 in SSE 1.3 mph 3.4 mph 77.6% 0.00 in 188 W/m2
10:54 76.7 °F 69.6 °F 29.94 in South 1.4 mph 2.9 mph 78.9% 0.00 in 182 W/m2
10:59 76.8 °F 69.6 °F 29.94 in SW 1 mph 4.5 mph 78.4% 0.00 in 213 W/m2
11:04 77.1 °F 69.7 °F 29.94 in WNW 0.2 mph 2.5 mph 77.8% 0.00 in 161 W/m2
11:09 77 °F 69.7 °F 29.94 in SW 1 mph 3.6 mph 78.4% 0.00 in 136 W/m2
11:14 76.9 °F 69.7 °F 29.95 in WSW 0.4 mph 3.4 mph 78.5% 0.00 in 166 W/m2
11:19 76.8 °F 70 °F 29.95 in SSE 0.8 mph 2 mph 79.5% 0.00 in 159 W/m2
11:24 76.7 °F 70 °F 29.95 in South 0.8 mph 2.7 mph 80% 0.00 in 154 W/m2
11:29 77.1 °F 69.8 °F 29.95 in WSW 0.4 mph 2.5 mph 78.3% 0.00 in 184 W/m2
11:34 77.5 °F 70.1 °F 29.95 in SSW 0.4 mph 2.9 mph 77.7% 0.00 in 290 W/m2
11:39 78.1 °F 70.4 °F 29.95 in SSE 1 mph 2.2 mph 77.2% 0.00 in 262 W/m2
11:44 78.3 °F 69.9 °F 29.94 in NW 1.5 mph 4.5 mph 75.8% 0.00 in 285 W/m2
11:49 78.3 °F 70 °F 29.95 in North 1.1 mph 2.7 mph 75.9% 0.00 in 279 W/m2
11:54 78.2 °F 70.3 °F 29.95 in SSE 1.4 mph 3.1 mph 76.7% 0.00 in 236 W/m2
11:59 78.2 °F 70.4 °F 29.94 in SE 1.6 mph 3.1 mph 77.2% 0.00 in 286 W/m2
12:04 78.4 °F 70.7 °F 29.95 in South 0.6 mph 2.5 mph 77.1% 0.00 in 174 W/m2
12:09 78.2 °F 70.2 °F 29.95 in SSE 1 mph 2.5 mph 76.5% 0.00 in 225 W/m2
12:14 78.2 °F 70.1 °F 29.95 in West 0.7 mph 2.9 mph 76.4% 0.00 in 221 W/m2
12:19 78.2 °F 70.1 °F 29.95 in WSW 1 mph 4.7 mph 76.4% 0.00 in 106 W/m2
12:24 77.7 °F 70.3 °F 29.95 in WSW 0.1 mph 4.7 mph 78% 0.00 in 86 W/m2
12:29 77.8 °F 70.3 °F 29.95 in West 0.2 mph 2.2 mph 77.7% 0.00 in 92 W/m2
12:34 77.9 °F 70.8 °F 29.95 in NNW 0.1 mph 1.6 mph 78.7% 0.00 in 95 W/m2
12:39 77.9 °F 70.9 °F 29.95 in Calm   1.3 mph 79% 0.00 in 76 W/m2
12:44 77.8 °F 71 °F 29.95 in Calm   1.1 mph 79.7% 0.00 in 153 W/m2
12:49 78.2 °F 71.4 °F 29.95 in Calm   1.8 mph 79.7% 0.00 in 214 W/m2
12:54 78.4 °F 70.6 °F 29.95 in WSW 0.5 mph 2.7 mph 77.2% 0.00 in 130 W/m2
12:59 77.9 °F 70.3 °F 29.95 in West 0.8 mph 2.9 mph 77.6% 0.00 in 48 W/m2
13:04 77.5 °F 70.5 °F 29.95 in WSW 1.1 mph 2.7 mph 78.9% 0.00 in 45 W/m2
13:09 77 °F 71 °F 29.94 in SSW 0.2 mph 2.7 mph 81.9% 0.00 in 104 W/m2
13:14 77.1 °F 70.6 °F 29.95 in SW 0.3 mph 2.7 mph 80.4% 0.00 in 160 W/m2
13:19 77.6 °F 71.9 °F 29.94 in SSE 0.1 mph 1.8 mph 82.4% 0.00 in 481 W/m2
13:24 78.8 °F 71.8 °F 29.94 in SSE 0.5 mph 2 mph 79.1% 0.00 in 511 W/m2
13:29 79.3 °F 71.4 °F 29.95 in SSW 1 mph 4 mph 77% 0.00 in 511 W/m2
13:34 79.7 °F 71.3 °F 29.94 in West 1.6 mph 4.7 mph 75.7% 0.00 in 755 W/m2
13:39 80.5 °F 71.7 °F 29.94 in SSE 0.4 mph 4.3 mph 74.5% 0.00 in 757 W/m2
13:44 81.5 °F 71.8 °F 29.94 in South 0.9 mph 2.7 mph 72.5% 0.00 in 806 W/m2
13:49 82.4 °F 72.2 °F 29.94 in SW 0.7 mph 3.4 mph 71.6% 0.00 in 844 W/m2
13:54 81.8 °F 71.7 °F 29.94 in South 1.4 mph 4.3 mph 71.5% 0.00 in 897 W/m2
13:59 81.1 °F 71.6 °F 29.94 in NW 0.9 mph 4 mph 73.1% 0.00 in 330 W/m2
14:04 81.8 °F 71.2 °F 29.94 in West 1.7 mph 5.8 mph 70.5% 0.00 in 888 W/m2
14:09 82.5 °F 72 °F 29.94 in NNW 0.9 mph 5.8 mph 70.7% 0.00 in 813 W/m2
14:14 83.1 °F 72.2 °F 29.93 in South 1.5 mph 4 mph 69.6% 0.00 in 789 W/m2
14:19 83.3 °F 71.6 °F 29.93 in WSW 1.1 mph 5.1 mph 68% 0.00 in 782 W/m2
14:24 82.8 °F 71.9 °F 29.93 in SSW 1.8 mph 5.8 mph 69.6% 0.00 in 795 W/m2
14:29 82.8 °F 72.2 °F 29.93 in SSW 1.7 mph 7.2 mph 70.6% 0.00 in 790 W/m2
14:34 82.4 °F 72.2 °F 29.92 in South 1.7 mph 7.2 mph 71.3% 0.00 in 810 W/m2
14:39 83.1 °F 72.1 °F 29.92 in SW 1.9 mph 6.9 mph 69.4% 0.00 in 796 W/m2
14:44 83.1 °F 72.1 °F 29.93 in South 2.1 mph 4.3 mph 69.6% 0.00 in 779 W/m2
14:49 81.5 °F 71.9 °F 29.93 in SSE 0.5 mph 3.1 mph 72.6% 0.00 in 531 W/m2
14:54 81.7 °F 71.6 °F 29.93 in SSE 1.5 mph 3.6 mph 71.6% 0.00 in 833 W/m2
14:59 82.4 °F 71.1 °F 29.93 in West 2.6 mph 6.7 mph 68.8% 0.00 in 800 W/m2
15:04 83.9 °F 71.4 °F 29.92 in SSW 1.7 mph 6.7 mph 66.2% 0.00 in 795 W/m2
15:09 84.5 °F 71.9 °F 29.92 in West 1.8 mph 5.4 mph 66.2% 0.00 in 800 W/m2
15:14 83.8 °F 72.2 °F 29.92 in SE 2.1 mph 4.5 mph 68.2% 0.00 in 789 W/m2
15:19 83.9 °F 71.9 °F 29.92 in SSE 1.8 mph 4.5 mph 67.1% 0.00 in 783 W/m2
15:24 84.1 °F 71.3 °F 29.92 in SE 1.8 mph 5.8 mph 65.6% 0.00 in 783 W/m2
15:29 84.3 °F 70.6 °F 29.92 in SSE 2 mph 4.7 mph 63.6% 0.00 in 756 W/m2
15:34 85.3 °F 70.8 °F 29.92 in West 1.5 mph 7.4 mph 62.2% 0.00 in 749 W/m2
15:39 84.9 °F 71.1 °F 29.92 in SSE 2 mph 4.3 mph 63.4% 0.00 in 727 W/m2
15:44 83.5 °F 70.9 °F 29.92 in SSE 0.7 mph 3.6 mph 65.8% 0.00 in 735 W/m2
15:49 84.6 °F 70.6 °F 29.92 in SW 2.1 mph 4.7 mph 63.1% 0.00 in 722 W/m2
15:54 84.8 °F 70.5 °F 29.92 in West 1.3 mph 4.7 mph 62.4% 0.00 in 711 W/m2
15:59 86.2 °F 71.4 °F 29.91 in SW 1.3 mph 4.7 mph 61.6% 0.00 in 702 W/m2
16:04 86.8 °F 72.4 °F 29.92 in SSW 0.9 mph 4.7 mph 62.5% 0.00 in 730 W/m2
16:09 86.7 °F 71.6 °F 29.92 in WSW 2.1 mph 6.3 mph 61.1% 0.00 in 710 W/m2
16:14 87.3 °F 72.6 °F 29.92 in WSW 1.6 mph 5.1 mph 61.9% 0.00 in 674 W/m2
16:19 86.7 °F 71.7 °F 29.92 in SW 0.9 mph 3.8 mph 61.3% 0.00 in 621 W/m2
16:24 84.9 °F 71.2 °F 29.92 in West 0.4 mph 4.9 mph 63.7% 0.00 in 148 W/m2
16:29 83.8 °F 70.6 °F 29.92 in NW 0.9 mph 4 mph 64.5% 0.00 in 149 W/m2
16:34 83.8 °F 71 °F 29.92 in West 0.7 mph 4.3 mph 65.5% 0.00 in 494 W/m2
16:39 84.1 °F 70.6 °F 29.91 in West 1.5 mph 4.5 mph 64% 0.00 in 561 W/m2
16:44 85 °F 71 °F 29.92 in West 1.1 mph 3.8 mph 63.1% 0.00 in 593 W/m2
16:49 85.2 °F 71.4 °F 29.91 in SSE 0.7 mph 3.4 mph 63.5% 0.00 in 587 W/m2
16:54 84.9 °F 71.6 °F 29.92 in SSW 0.3 mph 2.2 mph 64.5% 0.00 in 216 W/m2
16:59 86.1 °F 71.7 °F 29.92 in WNW 1.2 mph 4.7 mph 62.4% 0.00 in 584 W/m2
17:04 86.5 °F 71.1 °F 29.91 in SSW 1.6 mph 4.7 mph 60.2% 0.00 in 551 W/m2
17:09 85.2 °F 70.5 °F 29.91 in WSW 1.4 mph 5.6 mph 61.5% 0.00 in 492 W/m2
17:14 84.5 °F 70.6 °F 29.91 in South 0.3 mph 2 mph 63.3% 0.00 in 472 W/m2
17:19 85.3 °F 70.9 °F 29.92 in SSE 0.6 mph 2 mph 62.2% 0.00 in 458 W/m2
17:24 85.4 °F 70.2 °F 29.92 in SW 0.7 mph 3.8 mph 60.5% 0.00 in 426 W/m2
17:29 86.7 °F 71.3 °F 29.91 in WNW 0.6 mph 2.2 mph 60.2% 0.00 in 416 W/m2
17:34 85.8 °F 70.9 °F 29.91 in West 1 mph 4.3 mph 61.3% 0.00 in 166 W/m2
Monroeville, Pennsylvania, USA
Compliments of Weather Underground - 4 mb